createdAt,value
2023-02-23T00:03:41.904Z,10.17
2023-02-23T00:08:48.086Z,10.65
2023-02-23T00:13:51.453Z,13.30
2023-02-23T00:18:57.191Z,9.30
2023-02-23T00:24:03.346Z,12.20
2023-02-23T00:29:09.719Z,11.50
2023-02-23T00:34:14.679Z,16.42
2023-02-23T00:39:25.816Z,13.80
2023-02-23T00:44:30.105Z,17.77
2023-02-23T00:49:33.365Z,9.13
2023-02-23T00:54:38.230Z,10.63
2023-02-23T00:59:43.126Z,10.80
2023-02-23T01:04:46.020Z,12.07
2023-02-23T01:09:49.271Z,14.57
2023-02-23T01:14:52.115Z,11.00
2023-02-23T01:19:55.806Z,11.73
2023-02-23T01:24:58.576Z,10.35
2023-02-23T01:30:01.505Z,11.77
2023-02-23T01:35:10.096Z,15.17
2023-02-23T01:40:16.665Z,9.20
2023-02-23T01:45:39.396Z,8.83
2023-02-23T01:51:03.736Z,13.57
2023-02-23T01:56:12.129Z,14.07
2023-02-23T02:01:15.106Z,9.93
2023-02-23T02:06:19.875Z,12.60
2023-02-23T02:11:26.444Z,11.90
2023-02-23T02:16:53.045Z,9.02
2023-02-23T02:22:26.151Z,11.60
2023-02-23T02:28:06.619Z,12.53
2023-02-23T02:33:44.199Z,12.43
2023-02-23T02:39:17.660Z,12.30
2023-02-23T02:44:42.322Z,11.52
2023-02-23T02:49:55.720Z,8.10
2023-02-23T02:55:05.869Z,17.27
2023-02-23T03:00:27.467Z,8.55
2023-02-23T03:06:06.735Z,13.00
2023-02-23T03:11:31.366Z,11.98
2023-02-23T03:17:15.717Z,11.52
2023-02-23T03:22:45.233Z,13.10
2023-02-23T03:28:29.581Z,14.23
2023-02-23T03:34:26.109Z,10.83
2023-02-23T03:40:02.212Z,9.80
2023-02-23T03:45:31.715Z,16.23
2023-02-23T03:51:08.061Z,11.30
2023-02-23T03:56:32.438Z,12.23
2023-02-23T04:01:55.696Z,11.70
2023-02-23T04:07:20.605Z,11.60
2023-02-23T04:12:56.542Z,11.18
2023-02-23T04:17:59.567Z,11.40
2023-02-23T04:23:02.297Z,16.08
2023-02-23T04:28:05.009Z,11.97
2023-02-23T04:33:07.768Z,8.90
2023-02-23T04:38:10.521Z,11.88
2023-02-23T04:43:14.090Z,14.83
2023-02-23T04:48:16.980Z,13.15
2023-02-23T04:53:19.808Z,11.77
2023-02-23T04:58:22.558Z,11.95
2023-02-23T05:03:25.412Z,10.25
2023-02-23T05:08:28.210Z,10.70
2023-02-23T05:13:31.019Z,14.68
2023-02-23T05:18:34.117Z,14.63
2023-02-23T05:23:38.059Z,11.48
2023-02-23T05:28:42.558Z,13.70
2023-02-23T05:33:46.011Z,8.20
2023-02-23T05:38:49.503Z,8.75
2023-02-23T05:43:53.895Z,11.23
2023-02-23T05:49:01.632Z,9.50
2023-02-23T05:54:04.484Z,12.48
2023-02-23T05:59:07.543Z,12.60
2023-02-23T06:04:10.376Z,16.20
2023-02-23T06:09:13.085Z,21.57
2023-02-23T06:14:16.653Z,15.82
2023-02-23T06:19:19.747Z,13.32
2023-02-23T06:24:23.851Z,15.17
2023-02-23T06:29:26.885Z,11.30
2023-02-23T06:34:30.158Z,14.93
2023-02-23T06:39:34.799Z,7.45
2023-02-23T06:44:38.099Z,11.93
2023-02-23T06:49:41.077Z,13.00
2023-02-23T06:54:44.297Z,10.35
2023-02-23T06:59:47.437Z,14.67
2023-02-23T07:04:50.164Z,19.33
2023-02-23T07:09:52.902Z,12.90
2023-02-23T07:14:55.646Z,15.87
2023-02-23T07:19:58.639Z,12.55
2023-02-23T07:25:01.520Z,12.17
2023-02-23T07:30:04.804Z,14.40
2023-02-23T07:35:08.000Z,7.47
2023-02-23T07:40:11.795Z,16.80
2023-02-23T07:45:14.759Z,14.60
2023-02-23T07:50:17.822Z,16.87
2023-02-23T07:55:21.240Z,18.17
2023-02-23T08:00:25.411Z,9.05
2023-02-23T08:05:28.932Z,19.20
2023-02-23T08:10:32.469Z,19.15
2023-02-23T08:15:35.149Z,18.80
2023-02-23T08:20:38.107Z,17.55
2023-02-23T08:25:40.827Z,20.67
2023-02-23T08:30:43.514Z,21.43
2023-02-23T08:35:46.498Z,23.50
2023-02-23T08:40:49.240Z,19.87
2023-02-23T08:45:52.003Z,20.35
2023-02-23T08:51:00.626Z,22.48
2023-02-23T08:56:06.550Z,21.40
2023-02-23T09:01:18.186Z,22.85
2023-02-23T09:06:25.597Z,26.43
2023-02-23T09:11:29.064Z,22.13
2023-02-23T09:16:32.532Z,26.65
2023-02-23T09:21:35.313Z,26.60
2023-02-23T09:26:40.389Z,23.25
2023-02-23T09:31:43.915Z,23.63
2023-02-23T09:36:46.719Z,29.23
2023-02-23T09:42:03.597Z,25.92
2023-02-23T09:47:33.808Z,24.60
2023-02-23T09:52:45.168Z,28.25
2023-02-23T09:57:50.187Z,24.13
2023-02-23T10:03:11.988Z,25.92
2023-02-23T10:08:49.204Z,25.65
2023-02-23T10:14:21.684Z,23.43
2023-02-23T10:19:41.292Z,23.65
2023-02-23T10:24:51.392Z,27.30
2023-02-23T10:30:00.906Z,24.45
2023-02-23T10:35:14.863Z,21.50
2023-02-23T10:40:24.582Z,20.87
2023-02-23T10:45:29.737Z,29.63
2023-02-23T10:50:33.841Z,28.97
2023-02-23T10:55:36.689Z,30.40
2023-02-23T11:00:41.115Z,26.63
2023-02-23T11:05:51.610Z,25.93
2023-02-23T11:11:09.290Z,24.75
2023-02-23T11:16:21.219Z,25.50
2023-02-23T11:21:40.229Z,22.83
2023-02-23T11:26:45.020Z,25.02
2023-02-23T11:31:51.654Z,32.90
2023-02-23T11:37:06.999Z,28.63
2023-02-23T11:42:22.203Z,22.90
2023-02-23T11:47:26.351Z,32.28
2023-02-23T11:52:30.242Z,26.20
2023-02-23T11:57:36.221Z,25.00
2023-02-23T12:03:00.869Z,25.30
2023-02-23T12:08:18.829Z,27.13
2023-02-23T12:13:33.369Z,26.10
2023-02-23T12:18:43.445Z,29.80
2023-02-23T12:23:51.404Z,26.30
2023-02-23T12:29:02.794Z,25.50
2023-02-23T12:34:32.490Z,26.83
2023-02-23T12:39:47.233Z,28.25
2023-02-23T12:44:53.926Z,26.63
2023-02-23T12:50:07.681Z,24.93
2023-02-23T12:55:12.908Z,30.70
2023-02-23T13:00:24.038Z,26.87
2023-02-23T13:05:28.770Z,27.90
2023-02-23T13:10:39.419Z,22.55
2023-02-23T13:15:47.718Z,27.17
2023-02-23T13:21:10.467Z,27.25
2023-02-23T13:26:39.630Z,29.67
2023-02-23T13:31:43.846Z,23.05
2023-02-23T13:36:47.608Z,20.38
2023-02-23T13:41:53.023Z,24.67
2023-02-23T13:47:33.992Z,22.67
2023-02-23T13:52:43.622Z,25.53
2023-02-23T13:57:46.919Z,27.50
2023-02-23T14:02:50.674Z,27.23
2023-02-23T14:08:06.348Z,23.57
2023-02-23T14:13:27.341Z,25.50
2023-02-23T14:18:33.532Z,27.43
2023-02-23T14:24:08.887Z,28.70
2023-02-23T14:29:18.048Z,26.20
2023-02-23T14:34:23.281Z,24.07
2023-02-23T14:39:29.141Z,32.25
2023-02-23T14:44:36.830Z,21.93
2023-02-23T14:49:45.844Z,27.08
2023-02-23T14:54:48.813Z,24.95
2023-02-23T14:59:59.605Z,27.10
2023-02-23T15:05:18.464Z,25.38
2023-02-23T15:10:46.853Z,23.90
2023-02-23T15:15:50.485Z,28.20
2023-02-23T15:20:53.682Z,31.23
2023-02-23T15:25:57.232Z,32.83
2023-02-23T15:31:04.994Z,29.02
2023-02-23T15:36:26.167Z,35.63
2023-02-23T15:41:33.349Z,33.60
2023-02-23T15:46:38.087Z,38.03
2023-02-23T15:51:50.290Z,35.07
2023-02-23T15:56:57.652Z,31.48
2023-02-23T16:02:10.919Z,29.37
2023-02-23T16:07:19.862Z,32.40
2023-02-23T16:12:33.035Z,27.50
2023-02-23T16:17:44.938Z,31.33
2023-02-23T16:22:55.124Z,35.83
2023-02-23T16:28:05.308Z,27.53
2023-02-23T16:33:29.075Z,35.22
2023-02-23T16:38:38.116Z,34.25
2023-02-23T16:43:41.352Z,42.67
2023-02-23T16:48:46.524Z,36.83
2023-02-23T16:53:50.885Z,50.43
2023-02-23T16:59:04.339Z,41.55
2023-02-23T17:04:15.737Z,45.90
2023-02-23T17:09:38.763Z,50.57
2023-02-23T17:14:41.594Z,48.00
2023-02-23T17:19:45.839Z,51.00
2023-02-23T17:24:48.609Z,54.60
2023-02-23T17:29:51.345Z,46.83
2023-02-23T17:34:54.229Z,36.47
2023-02-23T17:39:56.928Z,35.42
2023-02-23T17:45:05.328Z,39.77
2023-02-23T17:50:08.645Z,38.63
2023-02-23T17:55:11.677Z,30.20
2023-02-23T18:00:17.540Z,42.00
2023-02-23T18:05:20.417Z,39.88
2023-02-23T18:10:25.703Z,41.23
2023-02-23T18:15:28.462Z,35.63
2023-02-23T18:20:31.244Z,41.17
2023-02-23T18:25:34.693Z,39.20
2023-02-23T18:30:38.365Z,48.78
2023-02-23T18:35:47.804Z,55.07
2023-02-23T18:40:50.503Z,55.63
2023-02-23T18:45:56.445Z,46.33
2023-02-23T18:50:59.462Z,53.37
2023-02-23T18:56:07.063Z,58.40
2023-02-23T19:01:20.890Z,45.37
2023-02-23T19:06:24.802Z,44.47
2023-02-23T19:11:30.643Z,41.28
2023-02-23T19:16:35.183Z,39.20
2023-02-23T19:21:38.611Z,49.25
2023-02-23T19:26:41.624Z,44.57
2023-02-23T19:31:44.845Z,41.78
2023-02-23T19:36:47.724Z,47.28
2023-02-23T19:41:50.437Z,51.67
2023-02-23T19:46:53.321Z,46.53
2023-02-23T19:51:58.037Z,51.97
2023-02-23T19:57:00.871Z,70.45
2023-02-23T20:02:03.793Z,55.63
2023-02-23T20:07:07.754Z,56.73
2023-02-23T20:12:11.149Z,60.67
2023-02-23T20:17:14.065Z,59.50
2023-02-23T20:22:16.757Z,56.00
2023-02-23T20:27:22.842Z,57.63
2023-02-23T20:32:25.784Z,51.33
2023-02-23T20:37:29.004Z,61.42
2023-02-23T20:42:31.895Z,51.23
2023-02-23T20:47:35.342Z,42.97
2023-02-23T20:52:39.116Z,53.17
2023-02-23T20:57:41.967Z,49.90
2023-02-23T21:02:44.747Z,46.35
2023-02-23T21:07:47.415Z,38.53
2023-02-23T21:12:50.149Z,43.67
2023-02-23T21:17:53.778Z,32.67
2023-02-23T21:22:57.069Z,44.13
2023-02-23T21:28:02.157Z,36.50
2023-02-23T21:33:05.024Z,41.27
2023-02-23T21:38:08.508Z,37.95
2023-02-23T21:43:13.176Z,30.70
2023-02-23T21:48:16.418Z,37.17
2023-02-23T21:53:19.434Z,29.83
2023-02-23T21:58:22.288Z,32.90
2023-02-23T22:03:26.260Z,34.17
2023-02-23T22:08:28.969Z,31.00
2023-02-23T22:13:31.780Z,27.03
2023-02-23T22:18:34.726Z,30.35
2023-02-23T22:23:38.570Z,23.07
2023-02-23T22:28:41.393Z,27.95
2023-02-23T22:33:44.816Z,26.05
2023-02-23T22:38:47.897Z,33.00
2023-02-23T22:43:50.844Z,23.35
2023-02-23T22:48:53.735Z,22.67
2023-02-23T22:53:56.452Z,25.63
2023-02-23T22:59:05.171Z,20.02
2023-02-23T23:04:10.883Z,24.90
2023-02-23T23:09:15.144Z,21.60
2023-02-23T23:14:21.320Z,19.33
2023-02-23T23:19:24.780Z,21.27
2023-02-23T23:24:27.633Z,24.60
2023-02-23T23:29:30.836Z,23.00
2023-02-23T23:34:34.312Z,22.10
2023-02-23T23:39:37.026Z,26.93
2023-02-23T23:44:39.818Z,22.92
2023-02-23T23:49:42.974Z,19.38
2023-02-23T23:54:45.896Z,12.83
2023-02-23T23:59:49.154Z,24.83
